Time;durP1;ratioP1;P1;durP2;ratioP2;P2;SDS_P1;SDS_P2;PMS_P1;PMS_P2;Temp;Humidity;BMP_temperature;BMP_pressure;BME280_temperature;BME280_humidity;BME280_pressure;Samples;Min_cycle;Max_cycle;Signal;HPM_P1;HPM_P2
2022/06/03 00:01:18;;;;;;;5.13;3.47;;;22.20;50.60;;;;;;5009929;28;20057;-57
2022/06/03 00:03:50;;;;;;;5.13;3.65;;;22.20;50.40;;;;;;5009058;28;20022;-57
2022/06/03 00:06:27;;;;;;;6.75;3.33;;;22.20;50.20;;;;;;4991677;28;20037;-57
2022/06/03 00:09:17;;;;;;;8.85;3.60;;;22.20;50.10;;;;;;5007723;28;20450;-57
2022/06/03 00:11:47;;;;;;;5.38;3.10;;;22.10;50.00;;;;;;5010300;28;20081;-58
2022/06/03 00:14:32;;;;;;;7.70;4.45;;;22.10;49.60;;;;;;5010997;28;20022;-55
2022/06/03 00:17:25;;;;;;;5.70;3.30;;;22.10;49.60;;;;;;5004795;28;20029;-57
2022/06/03 00:20:21;;;;;;;11.40;3.92;;;22.00;49.70;;;;;;5001315;28;20030;-57
2022/06/03 00:23:11;;;;;;;7.70;3.47;;;22.00;49.50;;;;;;5008107;28;20058;-57
2022/06/03 00:25:59;;;;;;;6.18;3.33;;;22.00;49.50;;;;;;5008189;28;20041;-58
2022/06/03 00:28:40;;;;;;;4.43;3.00;;;21.90;49.50;;;;;;5011343;28;20077;-56
2022/06/03 00:31:19;;;;;;;5.75;3.13;;;21.90;49.40;;;;;;5005455;28;20205;-58
2022/06/03 00:33:57;;;;;;;7.22;3.17;;;21.80;49.30;;;;;;5000176;28;20496;-58
2022/06/03 00:36:49;;;;;;;6.57;3.45;;;21.80;49.40;;;;;;5008893;28;20112;-54
2022/06/03 00:39:32;;;;;;;3.95;2.80;;;21.70;49.30;;;;;;5013942;28;20100;-57
2022/06/03 00:42:31;;;;;;;6.50;3.88;;;21.70;49.40;;;;;;5011104;28;20609;-55
2022/06/03 00:45:01;;;;;;;10.00;4.50;;;21.70;49.30;;;;;;5006253;28;20030;-58
2022/06/03 00:47:45;;;;;;;8.98;5.05;;;21.70;49.40;;;;;;4994488;28;20041;-56
2022/06/03 00:50:26;;;;;;;8.82;3.33;;;21.60;49.30;;;;;;4999671;28;20078;-57
2022/06/03 00:53:20;;;;;;;7.53;2.70;;;21.70;49.40;;;;;;5005476;28;20034;-56
2022/06/03 00:56:04;;;;;;;4.18;2.80;;;21.60;49.30;;;;;;4973486;28;20128;-57
2022/06/03 00:59:01;;;;;;;7.03;3.13;;;21.70;49.10;;;;;;5009271;28;20034;-56
2022/06/03 01:02:04;;;;;;;4.43;2.38;;;21.60;48.80;;;;;;5009592;28;20023;-57
2022/06/03 01:05:00;;;;;;;13.43;2.72;;;21.50;49.00;;;;;;5010466;28;20056;-56
2022/06/03 01:07:29;;;;;;;7.85;2.60;;;21.50;49.10;;;;;;5009101;28;20029;-57
2022/06/03 01:10:06;;;;;;;4.35;3.10;;;21.50;49.20;;;;;;5011330;28;20033;-56
2022/06/03 01:13:02;;;;;;;4.78;3.00;;;21.50;49.30;;;;;;5007042;28;20053;-55
2022/06/03 01:15:50;;;;;;;5.70;2.90;;;21.50;49.10;;;;;;5007882;28;20061;-57
2022/06/03 01:18:22;;;;;;;6.55;3.00;;;21.40;49.20;;;;;;5011984;28;20518;-55
2022/06/03 01:21:12;;;;;;;4.70;2.95;;;21.40;49.30;;;;;;5009971;28;20161;-57
2022/06/03 01:24:07;;;;;;;7.05;2.88;;;21.40;49.30;;;;;;5013048;28;20026;-55
2022/06/03 01:26:51;;;;;;;;;;;21.40;49.30;;;;;;5000881;28;20061;-57
2022/06/03 01:29:45;;;;;;;5.88;2.53;;;21.40;49.20;;;;;;5013268;28;20372;-56
2022/06/03 01:32:10;;;;;;;;;;;21.30;49.10;;;;;;4951378;29;20114;-58
2022/06/03 01:34:45;;;;;;;3.75;2.00;;;21.30;49.00;;;;;;4948579;29;20368;-56
2022/06/03 01:37:19;;;;;;;3.92;2.28;;;21.30;49.00;;;;;;4942514;29;20046;-58
2022/06/03 01:40:15;;;;;;;7.03;2.78;;;21.30;49.10;;;;;;4953996;29;20106;-56
2022/06/03 01:42:40;;;;;;;5.03;2.72;;;21.20;49.10;;;;;;4951258;29;20127;-56
2022/06/03 01:45:27;;;;;;;4.40;2.30;;;21.20;49.10;;;;;;4948857;28;20111;-58
2022/06/03 01:48:30;;;;;;;3.08;2.38;;;21.20;49.20;;;;;;4953603;29;20481;-55
2022/06/03 01:51:14;;;;;;;3.15;2.60;;;21.10;49.10;;;;;;4921901;29;20335;-57
2022/06/03 01:54:10;;;;;;;4.72;2.55;;;21.20;49.20;;;;;;4953237;29;20051;-58
2022/06/03 01:57:02;;;;;;;4.18;2.40;;;21.20;49.00;;;;;;4949151;29;20492;-57
2022/06/03 01:59:55;;;;;;;4.75;2.28;;;21.10;49.20;;;;;;4949407;29;20043;-56
2022/06/03 02:02:24;;;;;;;7.25;2.55;;;21.10;49.10;;;;;;4943813;29;20043;-56
2022/06/03 02:05:04;;;;;;;6.45;2.67;;;21.00;49.20;;;;;;4953126;29;20027;-59
2022/06/03 02:07:50;;;;;;;6.50;2.60;;;21.10;49.80;;;;;;4952570;29;20032;-56
2022/06/03 02:10:48;;;;;;;3.50;2.40;;;21.10;49.00;;;;;;5009165;28;20133;-57
2022/06/03 02:13:35;;;;;;;4.18;2.20;;;21.10;49.10;;;;;;5012036;28;20026;-55
2022/06/03 02:16:22;;;;;;;7.05;2.72;;;21.10;49.20;;;;;;4997295;28;20030;-55
2022/06/03 02:18:58;;;;;;;6.32;2.70;;;21.00;49.40;;;;;;4998113;28;20052;-56
2022/06/03 02:21:45;;;;;;;4.43;2.70;;;21.10;49.30;;;;;;5010687;28;20030;-55
2022/06/03 02:24:54;;;;;;;5.63;2.67;;;21.00;49.30;;;;;;5009036;28;20022;-55
2022/06/03 02:27:35;;;;;;;5.25;2.97;;;21.00;49.30;;;;;;4997156;28;20058;-57
2022/06/03 02:30:24;;;;;;;6.07;2.95;;;20.90;49.50;;;;;;5010343;28;20382;-56
2022/06/03 02:33:33;;;;;;;6.70;2.90;;;20.80;50.20;;;;;;5011743;28;20034;-57
2022/06/03 02:36:53;;;;;;;5.15;2.95;;;20.90;49.50;;;;;;5012518;28;20029;-58
2022/06/03 02:39:39;;;;;;;4.25;2.80;;;20.80;49.80;;;;;;4948697;29;20066;-57
2022/06/03 02:42:36;;;;;;;7.00;3.17;;;20.80;49.70;;;;;;5002685;28;20343;-57
2022/06/03 02:45:20;;;;;;;5.43;2.92;;;20.80;49.80;;;;;;5008270;28;20030;-57
2022/06/03 02:48:01;;;;;;;6.05;2.80;;;20.80;49.60;;;;;;4994777;28;20065;-56
2022/06/03 02:50:39;;;;;;;6.80;2.58;;;20.80;49.60;;;;;;5000368;28;20116;-55
2022/06/03 02:53:04;;;;;;;6.93;3.00;;;20.80;49.60;;;;;;5007875;28;20026;-59
2022/06/03 02:55:41;;;;;;;4.63;2.45;;;20.80;49.50;;;;;;5006914;28;20041;-56
2022/06/03 02:58:28;;;;;;;3.97;2.50;;;20.80;49.60;;;;;;5007525;28;20040;-57
2022/06/03 03:01:14;;;;;;;20.67;4.05;;;20.90;49.40;;;;;;5001654;28;20030;-56
2022/06/03 03:04:25;;;;;;;4.50;2.60;;;20.90;49.30;;;;;;5004363;28;20099;-57
2022/06/03 03:07:15;;;;;;;4.50;2.58;;;21.00;49.00;;;;;;5010789;28;20034;-56
2022/06/03 03:10:18;;;;;;;4.43;2.33;;;21.00;48.70;;;;;;5011370;28;20057;-57
2022/06/03 03:13:08;;;;;;;4.38;2.50;;;20.90;48.50;;;;;;5010966;28;20030;-57
2022/06/03 03:15:43;;;;;;;5.63;2.78;;;20.90;48.60;;;;;;4993627;28;20038;-55
2022/06/03 03:18:24;;;;;;;8.57;2.50;;;20.80;48.70;;;;;;4992996;28;20026;-55
2022/06/03 03:21:30;;;;;;;5.80;2.63;;;20.80;49.00;;;;;;5009792;28;20034;-57
2022/06/03 03:24:17;;;;;;;6.32;2.53;;;20.90;48.80;;;;;;4984803;28;20046;-58
2022/06/03 03:26:58;;;;;;;4.63;2.42;;;21.00;48.60;;;;;;4979930;28;20443;-57
2022/06/03 03:29:45;;;;;;;6.15;2.17;;;21.10;48.40;;;;;;4982903;28;20057;-57
2022/06/03 03:32:13;;;;;;;5.72;2.50;;;21.20;48.20;;;;;;4974277;28;20058;-57
2022/06/03 03:34:45;;;;;;;5.35;2.20;;;21.20;48.10;;;;;;4961763;28;20154;-57
2022/06/03 03:37:39;;;;;;;6.05;2.85;;;21.20;48.10;;;;;;4971999;28;20035;-57
2022/06/03 03:40:52;;;;;;;4.85;2.15;;;21.20;48.10;;;;;;4966057;28;20187;-57
2022/06/03 03:43:24;;;;;;;5.63;2.72;;;21.10;48.40;;;;;;4931321;29;20063;-57
2022/06/03 03:45:52;;;;;;;4.57;2.92;;;21.10;48.40;;;;;;4932172;29;20051;-56
2022/06/03 03:48:47;;;;;;;5.38;2.60;;;21.10;48.40;;;;;;4932452;29;20050;-56
2022/06/03 03:51:42;;;;;;;3.97;2.35;;;21.00;48.50;;;;;;4937132;29;20056;-57
2022/06/03 03:54:23;;;;;;;3.70;2.53;;;21.00;48.60;;;;;;4937007;28;20039;-57
2022/06/03 03:57:29;;;;;;;7.03;2.88;;;21.00;48.70;;;;;;4948883;28;20034;-56
2022/06/03 04:00:12;;;;;;;6.53;2.58;;;21.00;48.80;;;;;;4901636;29;20477;-57
2022/06/03 04:03:25;;;;;;;10.30;3.30;;;21.00;48.70;;;;;;4946166;28;20031;-55
2022/06/03 04:05:59;;;;;;;5.07;2.75;;;21.10;48.80;;;;;;4954771;28;20043;-56
2022/06/03 04:09:06;;;;;;;8.63;2.80;;;21.10;48.80;;;;;;4952231;28;20043;-56
2022/06/03 04:11:52;;;;;;;8.07;3.08;;;21.10;48.90;;;;;;4943646;28;20050;-55
2022/06/03 04:14:27;;;;;;;6.40;2.92;;;21.10;49.10;;;;;;4949500;28;20488;-55
2022/06/03 04:17:37;;;;;;;3.90;2.60;;;21.10;49.40;;;;;;4962683;28;20026;-56
2022/06/03 04:20:39;;;;;;;5.15;3.17;;;21.10;49.90;;;;;;4998284;28;20046;-56
2022/06/03 04:23:24;;;;;;;6.10;3.45;;;21.10;50.00;;;;;;4996605;28;20030;-57
2022/06/03 04:26:14;;;;;;;7.18;3.30;;;21.20;50.00;;;;;;5007236;28;20352;-57
2022/06/03 04:29:04;;;;;;;8.88;3.85;;;21.20;50.10;;;;;;5005106;28;20128;-57
2022/06/03 04:32:15;;;;;;;6.45;3.42;;;21.30;50.00;;;;;;5006401;28;20429;-58
2022/06/03 04:34:56;;;;;;;5.65;3.35;;;21.40;50.00;;;;;;4996993;28;20026;-58
2022/06/03 04:37:44;;;;;;;6.18;3.70;;;21.50;49.90;;;;;;5002294;28;20026;-56
2022/06/03 04:40:28;;;;;;;5.25;3.42;;;21.50;50.00;;;;;;5006948;28;20121;-56
2022/06/03 04:43:18;;;;;;;7.72;3.80;;;21.40;50.20;;;;;;5005612;28;20049;-56
2022/06/03 04:46:08;;;;;;;6.93;3.83;;;21.40;50.30;;;;;;5009486;28;20034;-57
2022/06/03 04:49:25;;;;;;;8.27;3.90;;;21.50;50.30;;;;;;4999650;28;20030;-56
2022/06/03 04:52:27;;;;;;;4.72;3.63;;;21.50;50.30;;;;;;4982142;28;20491;-57
2022/06/03 04:55:37;;;;;;;8.30;4.03;;;21.60;50.30;;;;;;5005619;28;20482;-58
2022/06/03 04:58:41;;;;;;;5.95;3.67;;;21.70;50.20;;;;;;5004731;28;20406;-56
2022/06/03 05:01:41;;;;;;;6.95;3.72;;;21.70;50.10;;;;;;5001258;28;20034;-57
2022/06/03 05:04:25;;;;;;;6.78;4.10;;;21.80;50.00;;;;;;5002444;28;20049;-56
2022/06/03 05:07:15;;;;;;;9.35;4.35;;;21.80;49.80;;;;;;4983379;28;20564;-56
2022/06/03 05:10:08;;;;;;;7.20;4.53;;;21.80;49.70;;;;;;4999283;28;20533;-56
2022/06/03 05:12:54;;;;;;;9.68;3.85;;;21.80;49.70;;;;;;4999857;28;20026;-57
2022/06/03 05:15:41;;;;;;;9.50;4.03;;;21.90;49.30;;;;;;5005415;28;20034;-56
2022/06/03 05:18:37;;;;;;;7.28;3.28;;;21.80;48.80;;;;;;5006875;28;20033;-56
2022/06/03 05:21:33;;;;;;;11.70;4.10;;;21.90;48.20;;;;;;5008535;28;20032;-57
2022/06/03 05:24:40;;;;;;;6.57;3.25;;;22.10;48.30;;;;;;5005954;28;20041;-59
2022/06/03 05:27:43;;;;;;;7.03;3.75;;;22.10;47.80;;;;;;5008182;28;20533;-57
2022/06/03 05:30:30;;;;;;;6.82;3.30;;;22.30;47.60;;;;;;5008811;28;20021;-59
2022/06/03 05:33:26;;;;;;;7.88;3.53;;;22.30;47.00;;;;;;5011645;28;20030;-57
2022/06/03 05:36:23;;;;;;;5.35;3.67;;;22.30;47.00;;;;;;4978583;28;20507;-56
2022/06/03 05:39:28;;;;;;;11.35;3.97;;;22.30;47.10;;;;;;5004685;28;20106;-57
2022/06/03 05:42:24;;;;;;;7.00;3.55;;;22.40;46.70;;;;;;5006076;28;20336;-56
2022/06/03 05:45:07;;;;;;;8.20;4.15;;;22.40;47.20;;;;;;5003428;28;20364;-57
2022/06/03 05:47:47;;;;;;;16.50;3.65;;;22.50;46.50;;;;;;4988385;28;21262;-56
2022/06/03 05:50:52;;;;;;;13.85;3.88;;;22.60;46.30;;;;;;5009397;28;20468;-57
2022/06/03 05:53:39;;;;;;;7.88;3.00;;;22.70;45.50;;;;;;4911914;29;20052;-57
2022/06/03 05:56:27;;;;;;;6.32;3.50;;;22.70;44.20;;;;;;4895250;29;20036;-56
2022/06/03 05:59:16;;;;;;;21.58;3.90;;;22.80;43.70;;;;;;4910834;29;20032;-59
2022/06/03 06:02:00;;;;;;;6.97;3.20;;;22.80;44.00;;;;;;4909575;29;20085;-57
2022/06/03 06:04:56;;;;;;;22.00;4.22;;;22.90;43.60;;;;;;4909166;29;20497;-55
2022/06/03 06:07:50;;;;;;;20.52;4.32;;;23.00;43.50;;;;;;4907569;29;20055;-56
2022/06/03 06:11:03;;;;;;;28.38;4.75;;;23.10;43.70;;;;;;4909748;29;20036;-56
2022/06/03 06:13:39;;;;;;;15.68;5.10;;;23.20;44.00;;;;;;4858233;29;20029;-56
2022/06/03 06:16:19;;;;;;;10.60;3.78;;;23.30;43.90;;;;;;4907756;29;20040;-63
2022/06/03 06:18:52;;;;;;;14.63;4.93;;;23.30;43.90;;;;;;4908172;29;20040;-57
2022/06/03 06:21:36;;;;;;;13.30;4.93;;;23.30;44.20;;;;;;4910450;29;20032;-57
2022/06/03 06:24:15;;;;;;;24.20;6.57;;;23.40;44.30;;;;;;4907492;29;20036;-58
2022/06/03 06:27:33;;;;;;;10.75;5.07;;;23.50;44.20;;;;;;4905833;29;20974;-56
2022/06/03 06:30:14;;;;;;;57.35;11.90;;;23.60;43.90;;;;;;4931751;28;20045;-59
2022/06/03 06:33:17;;;;;;;52.63;9.07;;;23.60;44.60;;;;;;4999647;28;20056;-60
2022/06/03 06:35:45;;;;;;;13.00;4.32;;;23.70;43.80;;;;;;4995022;28;20054;-59
2022/06/03 06:38:34;;;;;;;7.70;4.10;;;23.90;43.20;;;;;;4999207;28;20034;-57
2022/06/03 06:41:35;;;;;;;10.57;4.32;;;23.90;43.20;;;;;;5004408;28;20301;-55
2022/06/03 06:44:24;;;;;;;13.25;4.22;;;24.00;43.10;;;;;;4995396;28;20031;-57
2022/06/03 06:47:14;;;;;;;19.70;4.55;;;24.30;43.00;;;;;;5001970;28;20038;-59
2022/06/03 06:50:03;;;;;;;12.10;3.78;;;25.10;42.30;;;;;;5004744;28;20129;-59
2022/06/03 06:52:40;;;;;;;10.45;4.22;;;28.80;38.10;;;;;;4948907;29;20467;-59
2022/06/03 06:55:27;;;;;;;18.40;5.13;;;33.40;31.80;;;;;;4944991;29;20125;-60
2022/06/03 06:58:03;;;;;;;32.80;5.72;;;37.10;29.00;;;;;;4928171;29;20397;-59
2022/06/03 07:00:34;;;;;;;8.40;3.35;;;40.40;26.30;;;;;;4948116;29;20028;-59
2022/06/03 07:03:22;;;;;;;11.45;3.78;;;41.50;24.50;;;;;;4950371;29;20198;-60
2022/06/03 07:05:51;;;;;;;9.35;3.45;;;42.50;24.50;;;;;;4947476;29;20043;-60
2022/06/03 07:08:22;;;;;;;7.78;3.60;;;44.00;23.40;;;;;;4949819;29;20546;-60
2022/06/03 07:10:57;;;;;;;33.20;6.63;;;44.30;22.60;;;;;;4948021;29;20031;-59
2022/06/03 07:13:23;;;;;;;12.98;4.00;;;44.60;22.60;;;;;;4947089;29;20106;-59
2022/06/03 07:15:57;;;;;;;8.00;3.20;;;45.20;22.30;;;;;;4950539;29;20489;-60
2022/06/03 07:21:37;;;;;;;13.73;3.47;;;46.60;21.70;;;;;;4945769;29;20117;-59
2022/06/03 07:24:29;;;;;;;31.65;3.60;;;46.40;21.30;;;;;;4943254;29;20051;-59
2022/06/03 07:27:03;;;;;;;9.25;2.72;;;46.70;21.40;;;;;;4944814;29;20477;-59
2022/06/03 07:29:43;;;;;;;5.40;3.50;;;47.00;21.00;;;;;;4970463;28;20065;-59
2022/06/03 07:32:20;;;;;;;9.95;3.50;;;47.30;21.00;;;;;;5007786;28;20025;-59
2022/06/03 07:34:59;;;;;;;7.18;3.45;;;47.80;20.90;;;;;;5010587;28;20018;-58
2022/06/03 07:37:28;;;;;;;9.90;3.20;;;48.10;20.80;;;;;;4980291;28;20026;-58
2022/06/03 07:40:01;;;;;;;6.43;3.30;;;48.70;20.40;;;;;;5000053;28;20025;-58
2022/06/03 07:42:56;;;;;;;5.55;2.92;;;47.90;20.40;;;;;;5000064;28;20137;-59
2022/06/03 07:45:48;;;;;;;7.20;2.83;;;47.80;20.50;;;;;;5001167;28;20026;-59
2022/06/03 07:48:22;;;;;;;19.70;4.57;;;48.00;20.50;;;;;;4987491;28;20056;-58
2022/06/03 07:50:55;;;;;;;10.02;4.05;;;48.00;20.50;;;;;;4990041;28;20091;-60
2022/06/03 07:53:25;;;;;;;12.27;4.03;;;48.00;20.60;;;;;;4982665;28;20026;-60
2022/06/03 07:55:53;;;;;;;6.72;3.40;;;48.40;20.60;;;;;;4987514;28;20042;-59
2022/06/03 07:58:22;;;;;;;11.90;3.90;;;49.00;20.40;;;;;;5004777;28;20084;-60
2022/06/03 08:00:48;;;;;;;10.45;3.70;;;49.10;20.30;;;;;;4994478;28;20041;-59
2022/06/03 08:03:26;;;;;;;12.05;3.90;;;49.80;20.10;;;;;;4991615;28;21467;-60
2022/06/03 08:05:58;;;;;;;6.05;3.70;;;50.00;19.90;;;;;;4993030;28;20044;-59
2022/06/03 08:11:23;;;;;;;12.50;4.32;;;52.00;19.50;;;;;;4992756;28;20061;-62
2022/06/03 08:13:55;;;;;;;14.35;3.75;;;52.40;19.20;;;;;;5002953;28;20097;-60
2022/06/03 08:16:26;;;;;;;10.80;4.18;;;52.10;19.20;;;;;;4999533;28;20052;-62
2022/06/03 08:19:26;;;;;;;7.22;3.38;;;51.80;19.20;;;;;;4999239;28;20138;-61
2022/06/03 08:21:55;;;;;;;38.63;7.18;;;51.60;19.10;;;;;;4983650;28;20034;-61
2022/06/03 08:24:30;;;;;;;8.25;2.83;;;51.30;19.40;;;;;;4973384;28;20447;-62
2022/06/03 08:27:20;;;;;;;28.08;4.97;;;51.60;19.00;;;;;;4998958;28;20030;-62
2022/06/03 08:29:57;;;;;;;9.20;3.28;;;51.40;19.10;;;;;;4992644;28;20208;-62
2022/06/03 08:32:40;;;;;;;6.88;3.25;;;51.40;18.90;;;;;;4985409;28;20026;-61
2022/06/03 08:35:23;;;;;;;12.15;3.67;;;51.00;19.10;;;;;;5001450;28;20478;-61
2022/06/03 08:37:53;;;;;;;12.90;3.25;;;51.80;19.20;;;;;;4997916;28;20105;-61
2022/06/03 08:41:05;;;;;;;14.10;3.30;;;51.80;19.10;;;;;;4980650;28;20026;-61
2022/06/03 08:43:42;;;;;;;7.47;3.38;;;52.20;19.00;;;;;;5002378;28;20022;-62
2022/06/03 08:46:17;;;;;;;8.68;3.20;;;51.80;19.00;;;;;;4995069;28;20085;-61
2022/06/03 08:48:45;;;;;;;19.83;4.38;;;51.90;19.20;;;;;;4988606;28;20341;-61
2022/06/03 08:52:00;;;;;;;10.48;3.75;;;52.20;18.80;;;;;;5000183;28;20042;-60
2022/06/03 08:54:55;;;;;;;17.15;4.28;;;51.30;19.10;;;;;;4957315;28;20113;-60
2022/06/03 08:57:27;;;;;;;11.25;3.30;;;51.60;19.10;;;;;;5004434;28;20034;-62
2022/06/03 09:00:25;;;;;;;6.63;3.40;;;51.30;19.00;;;;;;5007244;28;20053;-61
2022/06/03 09:03:08;;;;;;;9.63;3.00;;;49.80;19.40;;;;;;4968977;28;20034;-60
2022/06/03 09:05:44;;;;;;;14.48;3.22;;;48.90;19.80;;;;;;5002118;28;20030;-60
2022/06/03 09:08:36;;;;;;;30.38;7.72;;;48.70;19.90;;;;;;5007831;28;20025;-59
2022/06/03 09:11:44;;;;;;;8.88;2.58;;;48.70;19.90;;;;;;4993380;28;20460;-59
2022/06/03 09:14:18;;;;;;;18.88;3.63;;;48.40;19.90;;;;;;4960383;28;20037;-61
2022/06/03 09:16:49;;;;;;;13.20;2.28;;;47.90;20.10;;;;;;5002953;28;20110;-61
2022/06/03 09:19:21;;;;;;;8.63;2.25;;;45.80;20.30;;;;;;5002874;28;20477;-59
2022/06/03 09:21:51;;;;;;;7.22;1.83;;;42.90;21.50;;;;;;4998346;28;20029;-60
2022/06/03 09:24:24;;;;;;;7.88;2.00;;;39.70;22.70;;;;;;4998953;28;20368;-59
2022/06/03 09:26:54;;;;;;;16.67;2.47;;;36.80;24.00;;;;;;4990643;28;20498;-61
2022/06/03 09:29:20;;;;;;;9.32;2.60;;;34.70;25.50;;;;;;4989988;28;20045;-60
2022/06/03 09:32:11;;;;;;;6.55;2.33;;;33.50;26.40;;;;;;5012735;28;20022;-60
2022/06/03 09:34:43;;;;;;;9.98;2.08;;;32.90;27.00;;;;;;4985529;28;20156;-59
2022/06/03 09:37:19;;;;;;;5.28;1.80;;;32.30;27.60;;;;;;5001842;28;20084;-59
2022/06/03 09:39:49;;;;;;;7.95;1.88;;;31.60;28.30;;;;;;5000052;28;20490;-60
2022/06/03 09:42:17;;;;;;;13.00;2.35;;;31.00;29.20;;;;;;4985818;28;20045;-62
2022/06/03 09:44:45;;;;;;;7.07;2.42;;;30.60;29.60;;;;;;4997778;28;20037;-62
2022/06/03 09:47:14;;;;;;;12.68;2.20;;;30.50;30.00;;;;;;5000796;28;20168;-59
2022/06/03 09:49:39;;;;;;;11.30;2.47;;;30.20;30.70;;;;;;5003763;28;20076;-62
2022/06/03 09:52:12;;;;;;;14.20;2.42;;;30.00;31.40;;;;;;4989168;28;20411;-59
2022/06/03 09:54:40;;;;;;;4.25;2.03;;;29.80;32.20;;;;;;4987644;28;20347;-60
2022/06/03 09:57:15;;;;;;;6.25;2.65;;;29.50;32.90;;;;;;4983770;28;20080;-61
2022/06/03 09:59:50;;;;;;;5.72;2.40;;;29.50;33.30;;;;;;5003352;28;20050;-62
2022/06/03 10:02:16;;;;;;;19.00;4.20;;;29.50;33.80;;;;;;4981488;28;20018;-61
2022/06/03 10:04:41;;;;;;;8.68;2.50;;;29.60;34.20;;;;;;5004855;28;20343;-59
2022/06/03 10:07:07;;;;;;;7.60;2.40;;;29.60;33.90;;;;;;4987447;28;20350;-64
2022/06/03 10:18:21;;;;;;;11.07;2.88;;;29.60;34.80;;;;;;5009672;28;20087;-60
2022/06/03 10:20:58;;;;;;;9.43;2.70;;;29.70;35.20;;;;;;5006196;28;20030;-64
2022/06/03 10:23:30;;;;;;;10.68;2.33;;;29.70;35.60;;;;;;4988895;28;20497;-61
2022/06/03 10:26:01;;;;;;;7.82;2.33;;;29.50;36.00;;;;;;4994387;28;20451;-60
2022/06/03 10:28:36;;;;;;;17.38;2.58;;;29.50;36.60;;;;;;4992507;28;20117;-59
2022/06/03 10:31:07;;;;;;;9.13;2.80;;;29.40;36.90;;;;;;5004386;28;20463;-59
2022/06/03 10:33:39;;;;;;;13.15;2.33;;;29.50;37.20;;;;;;5005364;28;20026;-61
2022/06/03 10:36:06;;;;;;;6.97;2.40;;;29.50;37.80;;;;;;4995141;28;20087;-61
2022/06/03 10:38:35;;;;;;;7.72;2.42;;;29.40;38.30;;;;;;5011367;28;20026;-61
2022/06/03 10:41:11;;;;;;;5.88;2.75;;;29.40;38.40;;;;;;5012272;28;20155;-61
2022/06/03 10:43:41;;;;;;;7.60;2.53;;;29.50;38.50;;;;;;5007371;28;20025;-60
2022/06/03 10:46:13;;;;;;;10.25;3.17;;;29.60;38.50;;;;;;5011293;28;20052;-60
2022/06/03 10:48:40;;;;;;;7.57;2.58;;;29.70;38.70;;;;;;4994735;28;20102;-60
2022/06/03 10:51:15;;;;;;;5.97;2.60;;;29.80;38.60;;;;;;5011338;28;20042;-62
2022/06/03 11:02:02;;;;;;;11.40;2.55;;;30.10;38.30;;;;;;5009665;28;20522;-62
2022/06/03 11:04:37;;;;;;;5.50;2.70;;;30.10;38.20;;;;;;5008069;28;20029;-61
2022/06/03 11:07:23;;;;;;;9.63;3.03;;;30.00;38.20;;;;;;4999157;28;20084;-60
2022/06/03 11:09:58;;;;;;;4.75;2.33;;;30.20;38.30;;;;;;4986690;28;20022;-61
2022/06/03 11:12:28;;;;;;;6.28;2.28;;;30.10;38.00;;;;;;4995055;28;20022;-60
2022/06/03 11:14:54;;;;;;;7.38;2.70;;;30.00;38.40;;;;;;5006101;28;20049;-61
2022/06/03 11:17:22;;;;;;;5.80;2.47;;;30.10;38.40;;;;;;5010989;28;20026;-62
2022/06/03 11:19:50;;;;;;;3.83;2.10;;;30.10;38.30;;;;;;5011385;28;20033;-59
2022/06/03 11:22:31;;;;;;;5.88;2.60;;;30.00;38.50;;;;;;5011374;28;20460;-61
2022/06/03 11:25:12;;;;;;;12.88;2.85;;;30.00;38.50;;;;;;5010024;28;20049;-60
2022/06/03 11:28:29;;;;;;;8.23;2.70;;;30.20;38.40;;;;;;5007862;28;20551;-59
2022/06/03 11:31:21;;;;;;;10.95;3.10;;;30.30;37.70;;;;;;4983065;28;20345;-58
2022/06/03 11:34:06;;;;;;;12.05;3.60;;;30.30;37.70;;;;;;4974581;28;20045;-61
2022/06/03 11:36:56;;;;;;;9.05;2.45;;;30.30;37.60;;;;;;5008760;28;20026;-61
2022/06/03 11:39:47;;;;;;;5.18;2.63;;;30.30;37.50;;;;;;5006625;28;20026;-60
2022/06/03 11:42:24;;;;;;;8.75;2.55;;;30.40;37.80;;;;;;4995859;28;20019;-60
2022/06/03 11:45:11;;;;;;;26.45;2.90;;;30.40;37.60;;;;;;4998965;28;20042;-60
2022/06/03 11:47:51;;;;;;;6.90;2.40;;;30.20;37.70;;;;;;5010070;28;20072;-60
2022/06/03 11:50:20;;;;;;;5.88;2.80;;;30.10;38.10;;;;;;5011098;28;20177;-61
2022/06/03 11:52:49;;;;;;;7.78;3.25;;;30.10;38.30;;;;;;4997214;28;20401;-59
2022/06/03 11:55:16;;;;;;;9.30;2.92;;;30.10;38.40;;;;;;5002728;28;20027;-58
2022/06/03 11:58:02;;;;;;;19.33;4.00;;;30.30;38.30;;;;;;4976865;28;20437;-59
2022/06/03 12:00:34;;;;;;;14.88;4.03;;;30.40;38.20;;;;;;4993472;28;20077;-59
2022/06/03 12:03:37;;;;;;;10.67;3.27;;;30.60;37.90;;;;;;5009883;28;20049;-59
2022/06/03 12:06:18;;;;;;;7.78;2.80;;;30.70;37.70;;;;;;4949698;29;20074;-60
2022/06/03 12:09:01;;;;;;;7.63;2.42;;;30.60;37.90;;;;;;4949437;29;20444;-60
2022/06/03 12:14:37;;;;;;;9.88;2.80;;;30.60;38.50;;;;;;4950074;29;20092;-59
2022/06/03 12:17:12;;;;;;;11.70;2.40;;;30.50;38.70;;;;;;4950201;29;20047;-59
2022/06/03 12:19:49;;;;;;;10.00;2.80;;;30.60;38.70;;;;;;4949477;29;20097;-60
2022/06/03 12:22:39;;;;;;;12.57;3.15;;;30.80;38.60;;;;;;4950133;29;20063;-60
2022/06/03 12:25:27;;;;;;;11.02;3.58;;;30.80;38.50;;;;;;4949828;29;20028;-59
2022/06/03 12:27:54;;;;;;;11.98;2.83;;;30.70;38.60;;;;;;4949680;29;20039;-62
2022/06/03 12:30:51;;;;;;;7.97;2.70;;;30.60;38.90;;;;;;4952593;28;20043;-60
2022/06/03 12:33:22;;;;;;;9.93;3.17;;;30.60;38.90;;;;;;4954227;29;20046;-59
2022/06/03 12:35:47;;;;;;;12.77;2.85;;;30.60;39.10;;;;;;4953644;29;20047;-60
2022/06/03 12:38:19;;;;;;;7.97;3.03;;;30.60;39.20;;;;;;4953421;29;20023;-60
2022/06/03 12:40:56;;;;;;;11.75;4.05;;;30.80;39.00;;;;;;4953543;29;20035;-59
2022/06/03 12:43:47;;;;;;;6.63;2.20;;;30.80;39.00;;;;;;5001400;28;20072;-59
2022/06/03 12:46:37;;;;;;;13.73;3.75;;;30.90;39.00;;;;;;4999255;28;20077;-59
2022/06/03 12:49:04;;;;;;;5.97;2.60;;;31.10;38.90;;;;;;4990391;28;20328;-59
2022/06/03 12:51:33;;;;;;;7.70;2.60;;;31.10;38.80;;;;;;5003754;28;20118;-60
2022/06/03 12:54:15;;;;;;;15.23;2.92;;;31.00;38.90;;;;;;4988787;28;20425;-59
2022/06/03 12:57:29;;;;;;;9.48;2.70;;;31.10;39.10;;;;;;5004337;28;20030;-57
2022/06/03 13:00:01;;;;;;;4.10;2.47;;;31.30;38.90;;;;;;4962612;28;20218;-61
2022/06/03 13:02:32;;;;;;;7.40;2.20;;;31.20;38.70;;;;;;4965110;28;20038;-60
2022/06/03 13:05:00;;;;;;;7.93;2.47;;;31.10;39.00;;;;;;4965906;28;20479;-58
2022/06/03 13:07:26;;;;;;;8.93;2.58;;;31.20;39.10;;;;;;4965920;28;20027;-61
2022/06/03 13:10:03;;;;;;;7.72;2.47;;;31.10;39.00;;;;;;4966312;28;20066;-59
2022/06/03 13:12:45;;;;;;;6.53;2.60;;;31.20;39.10;;;;;;4966402;28;20110;-60
2022/06/03 13:15:20;;;;;;;5.68;2.50;;;31.50;39.10;;;;;;4962287;28;20030;-59
2022/06/03 13:18:10;;;;;;;8.00;2.60;;;31.40;39.00;;;;;;4964550;28;20043;-59
2022/06/03 13:20:43;;;;;;;7.55;2.70;;;31.50;39.00;;;;;;4964200;28;20063;-60
2022/06/03 13:23:36;;;;;;;6.00;2.20;;;31.50;39.00;;;;;;4962894;28;20117;-58
2022/06/03 13:26:22;;;;;;;11.32;2.85;;;31.50;38.90;;;;;;4963877;28;20118;-61
2022/06/03 13:29:01;;;;;;;10.55;2.80;;;31.30;39.00;;;;;;4961079;28;20063;-61
2022/06/03 13:31:50;;;;;;;10.13;2.80;;;31.40;39.10;;;;;;4965862;28;20435;-60
2022/06/03 13:34:27;;;;;;;7.25;2.90;;;31.40;39.10;;;;;;4958132;28;20098;-58
2022/06/03 13:36:55;;;;;;;7.35;2.50;;;31.20;39.10;;;;;;4992340;28;20034;-60
2022/06/03 13:39:23;;;;;;;5.72;2.58;;;31.20;39.00;;;;;;4987799;28;20026;-61
2022/06/03 13:45:08;;;;;;;4.00;2.40;;;31.10;39.10;;;;;;5002286;28;20386;-60
2022/06/03 13:47:46;;;;;;;7.30;2.58;;;31.10;39.90;;;;;;5005147;28;20136;-59
2022/06/03 13:50:35;;;;;;;9.23;3.30;;;31.40;39.30;;;;;;5003248;28;20042;-59
2022/06/03 13:53:12;;;;;;;11.30;3.10;;;31.50;39.20;;;;;;5005964;28;20052;-61
2022/06/03 13:55:38;;;;;;;11.55;3.67;;;31.60;39.20;;;;;;4982819;28;20168;-60
2022/06/03 13:58:19;;;;;;;9.85;2.67;;;31.70;38.70;;;;;;5003802;28;20026;-60
2022/06/03 14:00:54;;;;;;;11.43;3.13;;;31.60;38.80;;;;;;5004415;28;20022;-60
2022/06/03 14:03:31;;;;;;;8.05;2.97;;;31.50;38.60;;;;;;4999532;28;20118;-61
2022/06/03 14:06:06;;;;;;;5.15;2.38;;;31.30;38.90;;;;;;5001103;28;20116;-60
2022/06/03 14:08:43;;;;;;;14.13;2.35;;;31.30;38.80;;;;;;5001025;28;20054;-60
2022/06/03 14:11:42;;;;;;;5.95;3.10;;;31.50;38.90;;;;;;4982644;28;20054;-61
2022/06/03 14:14:17;;;;;;;7.93;2.42;;;31.50;38.70;;;;;;4945555;29;20602;-60
2022/06/03 14:16:55;;;;;;;7.75;2.97;;;31.70;38.50;;;;;;4959373;28;20057;-60
2022/06/03 14:19:49;;;;;;;17.23;4.40;;;31.90;38.50;;;;;;4962066;28;20053;-59
2022/06/03 14:22:19;;;;;;;8.27;2.72;;;31.90;38.40;;;;;;4965121;28;20026;-59
2022/06/03 14:25:18;;;;;;;7.35;2.90;;;31.90;38.40;;;;;;4960793;28;20035;-61
2022/06/03 14:28:12;;;;;;;45.95;6.65;;;31.80;38.30;;;;;;4945644;28;20055;-57
2022/06/03 14:31:01;;;;;;;12.45;3.70;;;31.70;38.40;;;;;;4963532;28;20518;-61
2022/06/03 14:33:39;;;;;;;10.90;2.75;;;31.70;38.50;;;;;;4961881;28;20039;-59